createdAt,value
2022-08-21T00:02:35.251Z,16.40
2022-08-21T00:07:36.873Z,16.55
2022-08-21T00:12:38.976Z,16.56
2022-08-21T00:17:40.940Z,16.62
2022-08-21T00:22:43.694Z,16.56
2022-08-21T00:27:45.413Z,16.49
2022-08-21T00:32:46.989Z,16.51
2022-08-21T00:37:48.867Z,16.47
2022-08-21T00:42:53.810Z,16.38
2022-08-21T00:47:55.568Z,16.31
2022-08-21T00:52:58.203Z,16.31
2022-08-21T00:58:02.256Z,16.17
2022-08-21T01:03:09.120Z,16.06
2022-08-21T01:08:11.614Z,15.85
2022-08-21T01:13:16.498Z,15.80
2022-08-21T01:18:18.360Z,15.84
2022-08-21T01:23:20.013Z,15.79
2022-08-21T01:28:23.252Z,15.80
2022-08-21T01:33:25.872Z,15.74
2022-08-21T01:38:27.700Z,15.66
2022-08-21T01:43:39.459Z,15.74
2022-08-21T01:48:43.325Z,15.81
2022-08-21T01:53:45.017Z,15.72
2022-08-21T01:58:48.016Z,15.61
2022-08-21T02:09:54.813Z,15.32
2022-08-21T02:14:57.645Z,15.18
2022-08-21T02:19:59.198Z,15.12
2022-08-21T02:25:01.178Z,15.18
2022-08-21T02:30:04.174Z,15.13
2022-08-21T02:35:08.051Z,15.31
2022-08-21T02:40:10.452Z,15.31
2022-08-21T02:45:13.593Z,15.37
2022-08-21T02:50:21.145Z,15.23
2022-08-21T02:55:26.746Z,15.13
2022-08-21T03:00:30.830Z,15.02
2022-08-21T03:05:35.339Z,14.96
2022-08-21T03:10:42.228Z,14.84
2022-08-21T03:15:44.040Z,14.67
2022-08-21T03:20:46.161Z,14.56
2022-08-21T03:25:49.192Z,14.56
2022-08-21T03:30:53.234Z,14.46
2022-08-21T03:36:07.631Z,14.43
2022-08-21T03:41:10.420Z,14.33
2022-08-21T03:46:14.917Z,14.36
2022-08-21T03:51:16.503Z,14.29
2022-08-21T03:56:18.363Z,14.25
2022-08-21T04:01:20.126Z,14.23
2022-08-21T04:06:22.952Z,14.27
2022-08-21T04:11:25.338Z,14.11
2022-08-21T04:16:27.071Z,13.93
2022-08-21T04:21:29.035Z,13.89
2022-08-21T04:26:31.316Z,14.04
2022-08-21T04:31:34.340Z,14.16
2022-08-21T04:36:36.440Z,14.23
2022-08-21T04:41:38.540Z,14.19
2022-08-21T04:46:40.440Z,14.31
2022-08-21T04:51:42.854Z,14.39
2022-08-21T04:56:52.888Z,14.43
2022-08-21T05:01:56.054Z,14.45
2022-08-21T05:07:03.433Z,14.63
2022-08-21T05:12:05.445Z,15.08
2022-08-21T05:17:07.455Z,15.60
2022-08-21T05:22:09.271Z,15.85
2022-08-21T05:27:11.727Z,16.22
2022-08-21T05:32:15.392Z,16.09
2022-08-21T05:37:17.634Z,16.06
2022-08-21T05:42:22.052Z,16.28
2022-08-21T05:47:24.263Z,16.28
2022-08-21T05:52:28.545Z,16.70
2022-08-21T05:57:30.475Z,17.11
2022-08-21T06:02:32.026Z,17.27
2022-08-21T06:07:33.784Z,17.73
2022-08-21T06:12:35.444Z,17.59
2022-08-21T06:17:37.163Z,17.90
2022-08-21T06:22:38.771Z,17.84
2022-08-21T06:27:40.392Z,18.17
2022-08-21T06:32:42.584Z,18.76
2022-08-21T06:37:44.220Z,19.01
2022-08-21T06:42:45.954Z,19.10
2022-08-21T06:47:49.294Z,20.84
2022-08-21T06:52:58.730Z,21.35
2022-08-21T06:58:00.523Z,22.12
2022-08-21T07:03:03.140Z,22.68
2022-08-21T07:08:05.109Z,22.12
2022-08-21T07:13:07.034Z,22.64
2022-08-21T07:18:08.980Z,24.20
2022-08-21T07:23:33.244Z,23.95
2022-08-21T07:28:35.588Z,23.58
2022-08-21T07:33:38.039Z,24.69
2022-08-21T07:38:40.356Z,25.29
2022-08-21T07:43:46.081Z,25.14
2022-08-21T07:48:48.075Z,25.54
2022-08-21T07:53:52.402Z,26.49
2022-08-21T07:58:54.035Z,26.78
2022-08-21T08:03:56.346Z,26.76
2022-08-21T08:08:57.903Z,27.23
2022-08-21T08:13:59.607Z,26.79
2022-08-21T08:19:01.494Z,26.42
2022-08-21T08:24:19.466Z,27.01
2022-08-21T08:29:22.457Z,27.50
2022-08-21T08:34:25.643Z,27.97
2022-08-21T08:39:29.582Z,28.05
2022-08-21T08:44:31.696Z,27.21
2022-08-21T08:49:41.082Z,28.72
2022-08-21T08:54:49.091Z,27.88
2022-08-21T08:59:53.749Z,27.30
2022-08-21T09:04:56.763Z,28.49
2022-08-21T09:10:18.049Z,27.07
2022-08-21T09:15:58.446Z,28.07
2022-08-21T09:21:24.848Z,28.57
2022-08-21T09:26:50.759Z,27.30
2022-08-21T09:31:52.480Z,29.61
2022-08-21T09:36:54.472Z,30.23
2022-08-21T09:42:01.344Z,30.66
2022-08-21T09:47:03.165Z,31.10
2022-08-21T09:52:16.425Z,30.44
2022-08-21T09:57:29.520Z,29.08
2022-08-21T10:02:36.692Z,29.05
2022-08-21T10:07:39.146Z,30.07
2022-08-21T10:12:55.939Z,30.25
2022-08-21T10:18:26.464Z,30.59
2022-08-21T10:23:31.038Z,31.19
2022-08-21T10:28:47.577Z,30.57
2022-08-21T10:33:52.287Z,30.28
2022-08-21T10:44:47.592Z,30.72
2022-08-21T10:50:08.238Z,32.45
2022-08-21T10:55:15.168Z,30.72
2022-08-21T11:00:21.425Z,31.55
2022-08-21T11:05:25.871Z,31.04
2022-08-21T11:10:37.451Z,31.25
2022-08-21T11:16:06.323Z,32.30
2022-08-21T11:21:27.901Z,31.25
2022-08-21T11:26:42.208Z,31.90
2022-08-21T11:31:43.658Z,32.46
2022-08-21T11:37:12.240Z,32.36
2022-08-21T11:42:31.250Z,31.83
2022-08-21T11:48:28.834Z,31.28
2022-08-21T11:53:43.615Z,31.26
2022-08-21T11:58:54.505Z,31.85
2022-08-21T12:04:05.156Z,31.93
2022-08-21T12:09:26.367Z,31.55
2022-08-21T12:14:48.773Z,31.49
2022-08-21T12:20:02.227Z,33.00
2022-08-21T12:25:12.397Z,31.83
2022-08-21T12:30:29.028Z,33.66
2022-08-21T12:35:39.982Z,33.04
2022-08-21T12:40:51.323Z,33.70
2022-08-21T12:45:53.008Z,33.52
2022-08-21T12:51:12.744Z,34.22
2022-08-21T12:56:19.987Z,33.50
2022-08-21T13:01:37.084Z,33.45
2022-08-21T13:06:46.591Z,32.38
2022-08-21T13:11:49.820Z,32.87
2022-08-21T13:16:59.937Z,33.56
2022-08-21T13:22:02.861Z,33.16
2022-08-21T13:27:28.823Z,32.99
2022-08-21T13:32:33.004Z,33.31
2022-08-21T13:37:36.067Z,33.53
2022-08-21T13:42:41.669Z,32.92
2022-08-21T13:47:46.461Z,32.03
2022-08-21T13:53:04.577Z,30.86
2022-08-21T13:58:07.529Z,32.02
2022-08-21T14:03:11.902Z,32.84
2022-08-21T14:08:15.631Z,33.37
2022-08-21T14:13:44.626Z,32.98
2022-08-21T14:19:03.750Z,31.90
2022-08-21T14:24:15.187Z,31.51
2022-08-21T14:29:25.178Z,31.46
2022-08-21T14:34:34.097Z,30.73
2022-08-21T14:39:40.687Z,30.32
2022-08-21T14:44:45.404Z,29.80
2022-08-21T14:49:47.040Z,29.48
2022-08-21T14:54:48.613Z,29.44
2022-08-21T14:59:50.339Z,29.57
2022-08-21T15:04:52.141Z,29.64
2022-08-21T15:09:53.936Z,29.71
2022-08-21T15:14:55.668Z,29.25
2022-08-21T15:19:57.367Z,29.16
2022-08-21T15:24:58.941Z,29.17
2022-08-21T15:30:00.762Z,29.23
2022-08-21T15:35:02.752Z,29.32
2022-08-21T15:40:07.047Z,29.82
2022-08-21T15:45:10.967Z,30.39
2022-08-21T15:50:13.654Z,29.08
2022-08-21T15:55:15.989Z,29.26
2022-08-21T16:00:24.160Z,29.50
2022-08-21T16:05:25.961Z,29.69
2022-08-21T16:10:30.090Z,30.46
2022-08-21T16:15:32.526Z,29.41
2022-08-21T16:20:34.269Z,29.88
2022-08-21T16:25:39.973Z,30.64
2022-08-21T16:30:44.393Z,29.68
2022-08-21T16:35:47.603Z,28.88
2022-08-21T16:40:49.500Z,28.84
2022-08-21T16:45:51.391Z,29.22
2022-08-21T16:50:53.180Z,29.19
2022-08-21T16:55:55.041Z,28.41
2022-08-21T17:00:58.200Z,27.87
2022-08-21T17:06:00.964Z,27.86
2022-08-21T17:11:05.006Z,28.15
2022-08-21T17:16:06.935Z,27.99
2022-08-21T17:21:08.557Z,27.54
2022-08-21T17:26:11.571Z,27.55
2022-08-21T17:31:14.727Z,27.30
2022-08-21T17:36:18.649Z,27.21
2022-08-21T17:41:21.498Z,26.98
2022-08-21T17:46:29.768Z,26.85
2022-08-21T17:51:31.752Z,26.66
2022-08-21T17:56:37.581Z,26.35
2022-08-21T18:01:42.184Z,26.17
2022-08-21T18:06:44.507Z,25.99
2022-08-21T18:11:46.520Z,25.88
2022-08-21T18:16:49.675Z,25.62
2022-08-21T18:21:55.751Z,25.51
2022-08-21T18:26:57.433Z,25.30
2022-08-21T18:31:59.238Z,25.21
2022-08-21T18:37:02.307Z,25.00
2022-08-21T18:42:09.680Z,24.91
2022-08-21T18:47:18.175Z,24.71
2022-08-21T18:52:20.933Z,24.64
2022-08-21T18:57:28.260Z,24.65
2022-08-21T19:02:30.307Z,24.59
2022-08-21T19:07:32.124Z,24.49
2022-08-21T19:12:34.462Z,24.38
2022-08-21T19:17:37.832Z,24.24
2022-08-21T19:22:40.821Z,24.14
2022-08-21T19:27:43.204Z,24.14
2022-08-21T19:32:47.750Z,24.11
2022-08-21T19:37:49.417Z,24.06
2022-08-21T19:42:54.221Z,24.03
2022-08-21T19:47:56.126Z,24.03
2022-08-21T19:53:00.802Z,23.97
2022-08-21T19:58:04.610Z,23.96
2022-08-21T20:03:07.179Z,23.91
2022-08-21T20:08:20.295Z,23.91
2022-08-21T20:13:23.316Z,23.88
2022-08-21T20:18:26.732Z,23.80
2022-08-21T20:28:51.650Z,23.70
2022-08-21T20:33:53.475Z,23.63
2022-08-21T20:38:56.395Z,23.56
2022-08-21T20:43:59.921Z,23.47
2022-08-21T20:49:02.496Z,23.43
2022-08-21T20:54:35.232Z,23.44
2022-08-21T20:59:58.507Z,23.38
2022-08-21T21:05:05.815Z,23.28
2022-08-21T21:10:24.887Z,23.33
2022-08-21T21:15:33.304Z,23.36
2022-08-21T21:20:45.756Z,23.17
2022-08-21T21:25:57.546Z,23.14
2022-08-21T21:30:59.165Z,23.17
2022-08-21T21:36:16.433Z,23.01
2022-08-21T21:41:35.420Z,22.90
2022-08-21T21:46:50.708Z,22.81
2022-08-21T21:52:33.048Z,22.71
2022-08-21T21:57:58.837Z,22.66
2022-08-21T22:03:16.488Z,22.65
2022-08-21T22:14:03.050Z,22.46
2022-08-21T22:19:26.925Z,22.43
2022-08-21T22:24:32.495Z,22.38
2022-08-21T22:30:03.517Z,22.27
2022-08-21T22:35:23.599Z,22.13
2022-08-21T22:40:32.355Z,22.00
2022-08-21T22:46:08.865Z,21.84
2022-08-21T22:56:59.747Z,21.56
2022-08-21T23:02:07.646Z,21.44
2022-08-21T23:07:33.784Z,21.18
2022-08-21T23:12:43.731Z,20.89
2022-08-21T23:17:55.058Z,20.67
2022-08-21T23:23:27.435Z,20.45
2022-08-21T23:28:41.767Z,20.32
2022-08-21T23:33:51.916Z,20.21
2022-08-21T23:45:31.616Z,20.03
2022-08-21T23:50:48.371Z,19.95
2022-08-21T23:55:55.254Z,19.75
